sensor_id;sensor_type;location;lat;lon;timestamp;P1;durP1;ratioP1;P2;durP2;ratioP2
78783;SDS011;68127;51.050;14.084;2023-07-02T00:00:52;5.07;;;2.80;;
78783;SDS011;68127;51.050;14.084;2023-07-02T00:03:17;5.22;;;2.70;;
78783;SDS011;68127;51.050;14.084;2023-07-02T00:05:46;5.10;;;2.65;;
78783;SDS011;68127;51.050;14.084;2023-07-02T00:08:12;7.22;;;2.70;;
78783;SDS011;68127;51.050;14.084;2023-07-02T00:10:38;10.50;;;3.08;;
78783;SDS011;68127;51.050;14.084;2023-07-02T00:13:03;4.53;;;2.60;;
78783;SDS011;68127;51.050;14.084;2023-07-02T00:15:28;6.22;;;2.50;;
78783;SDS011;68127;51.050;14.084;2023-07-02T00:17:53;5.40;;;2.30;;
78783;SDS011;68127;51.050;14.084;2023-07-02T00:20:22;4.47;;;2.28;;
78783;SDS011;68127;51.050;14.084;2023-07-02T00:22:48;4.10;;;2.35;;
78783;SDS011;68127;51.050;14.084;2023-07-02T00:25:13;4.40;;;2.45;;
78783;SDS011;68127;51.050;14.084;2023-07-02T00:27:39;6.80;;;2.40;;
78783;SDS011;68127;51.050;14.084;2023-07-02T00:30:05;4.85;;;2.25;;
78783;SDS011;68127;51.050;14.084;2023-07-02T00:32:31;6.47;;;2.42;;
78783;SDS011;68127;51.050;14.084;2023-07-02T00:34:56;4.65;;;2.50;;
78783;SDS011;68127;51.050;14.084;2023-07-02T00:37:21;4.47;;;2.40;;
78783;SDS011;68127;51.050;14.084;2023-07-02T00:39:47;6.50;;;2.30;;
78783;SDS011;68127;51.050;14.084;2023-07-02T00:42:13;4.55;;;2.40;;
78783;SDS011;68127;51.050;14.084;2023-07-02T00:44:39;6.35;;;2.30;;
78783;SDS011;68127;51.050;14.084;2023-07-02T00:47:08;3.33;;;2.13;;
78783;SDS011;68127;51.050;14.084;2023-07-02T00:49:34;4.32;;;2.00;;
78783;SDS011;68127;51.050;14.084;2023-07-02T00:51:59;3.53;;;1.83;;
78783;SDS011;68127;51.050;14.084;2023-07-02T00:54:27;3.50;;;2.08;;
78783;SDS011;68127;51.050;14.084;2023-07-02T00:56:53;6.65;;;2.20;;
78783;SDS011;68127;51.050;14.084;2023-07-02T00:59:18;3.58;;;2.15;;
78783;SDS011;68127;51.050;14.084;2023-07-02T01:01:43;3.92;;;2.00;;
78783;SDS011;68127;51.050;14.084;2023-07-02T01:04:14;4.07;;;2.05;;
78783;SDS011;68127;51.050;14.084;2023-07-02T01:06:42;4.85;;;2.08;;
78783;SDS011;68127;51.050;14.084;2023-07-02T01:09:07;4.47;;;2.10;;
78783;SDS011;68127;51.050;14.084;2023-07-02T01:16:51;4.93;;;2.13;;
78783;SDS011;68127;51.050;14.084;2023-07-02T01:21:57;5.15;;;1.90;;
78783;SDS011;68127;51.050;14.084;2023-07-02T01:24:22;4.60;;;2.00;;
78783;SDS011;68127;51.050;14.084;2023-07-02T01:26:48;3.72;;;2.10;;
78783;SDS011;68127;51.050;14.084;2023-07-02T01:29:17;4.97;;;1.90;;
78783;SDS011;68127;51.050;14.084;2023-07-02T01:31:43;3.10;;;1.80;;
78783;SDS011;68127;51.050;14.084;2023-07-02T01:34:09;3.60;;;1.80;;
78783;SDS011;68127;51.050;14.084;2023-07-02T01:36:34;3.67;;;1.98;;
78783;SDS011;68127;51.050;14.084;2023-07-02T01:38:59;3.83;;;1.67;;
78783;SDS011;68127;51.050;14.084;2023-07-02T01:41:25;2.85;;;1.70;;
78783;SDS011;68127;51.050;14.084;2023-07-02T01:43:50;3.42;;;2.10;;
78783;SDS011;68127;51.050;14.084;2023-07-02T01:46:15;2.85;;;1.70;;
78783;SDS011;68127;51.050;14.084;2023-07-02T01:48:40;4.25;;;1.90;;
78783;SDS011;68127;51.050;14.084;2023-07-02T01:51:06;4.68;;;1.80;;
78783;SDS011;68127;51.050;14.084;2023-07-02T01:53:31;2.60;;;1.70;;
78783;SDS011;68127;51.050;14.084;2023-07-02T01:55:56;5.15;;;1.90;;
78783;SDS011;68127;51.050;14.084;2023-07-02T01:58:21;3.80;;;1.90;;
78783;SDS011;68127;51.050;14.084;2023-07-02T02:00:47;4.78;;;1.95;;
78783;SDS011;68127;51.050;14.084;2023-07-02T02:03:12;4.10;;;1.80;;
78783;SDS011;68127;51.050;14.084;2023-07-02T02:05:38;2.70;;;1.70;;
78783;SDS011;68127;51.050;14.084;2023-07-02T02:08:03;4.68;;;1.80;;
78783;SDS011;68127;51.050;14.084;2023-07-02T02:10:28;3.63;;;1.80;;
78783;SDS011;68127;51.050;14.084;2023-07-02T02:12:54;3.80;;;1.73;;
78783;SDS011;68127;51.050;14.084;2023-07-02T02:15:19;6.05;;;1.80;;
78783;SDS011;68127;51.050;14.084;2023-07-02T02:17:44;3.35;;;1.80;;
78783;SDS011;68127;51.050;14.084;2023-07-02T02:20:10;4.43;;;2.15;;
78783;SDS011;68127;51.050;14.084;2023-07-02T02:22:36;3.33;;;1.70;;
78783;SDS011;68127;51.050;14.084;2023-07-02T02:25:01;3.70;;;1.98;;
78783;SDS011;68127;51.050;14.084;2023-07-02T02:27:28;4.07;;;1.95;;
78783;SDS011;68127;51.050;14.084;2023-07-02T02:29:53;3.88;;;1.98;;
78783;SDS011;68127;51.050;14.084;2023-07-02T02:32:18;3.50;;;2.10;;
78783;SDS011;68127;51.050;14.084;2023-07-02T02:34:46;6.75;;;2.42;;
78783;SDS011;68127;51.050;14.084;2023-07-02T02:37:11;4.70;;;2.40;;
78783;SDS011;68127;51.050;14.084;2023-07-02T02:39:36;3.25;;;2.10;;
78783;SDS011;68127;51.050;14.084;2023-07-02T02:42:02;4.03;;;2.00;;
78783;SDS011;68127;51.050;14.084;2023-07-02T02:44:27;4.32;;;2.22;;
78783;SDS011;68127;51.050;14.084;2023-07-02T02:46:52;3.60;;;2.40;;
78783;SDS011;68127;51.050;14.084;2023-07-02T02:49:17;4.10;;;2.42;;
78783;SDS011;68127;51.050;14.084;2023-07-02T02:51:43;3.72;;;2.28;;
78783;SDS011;68127;51.050;14.084;2023-07-02T02:54:08;4.78;;;2.10;;
78783;SDS011;68127;51.050;14.084;2023-07-02T02:56:33;4.10;;;2.50;;
78783;SDS011;68127;51.050;14.084;2023-07-02T02:58:59;3.33;;;2.17;;
78783;SDS011;68127;51.050;14.084;2023-07-02T03:01:24;4.90;;;2.40;;
78783;SDS011;68127;51.050;14.084;2023-07-02T03:03:53;6.60;;;2.78;;
78783;SDS011;68127;51.050;14.084;2023-07-02T03:06:18;3.72;;;2.30;;
78783;SDS011;68127;51.050;14.084;2023-07-02T03:08:43;4.32;;;2.65;;
78783;SDS011;68127;51.050;14.084;2023-07-02T03:11:09;4.07;;;2.45;;
78783;SDS011;68127;51.050;14.084;2023-07-02T03:13:34;5.20;;;2.50;;
78783;SDS011;68127;51.050;14.084;2023-07-02T03:15:59;4.15;;;2.40;;
78783;SDS011;68127;51.050;14.084;2023-07-02T03:18:25;4.07;;;2.60;;
78783;SDS011;68127;51.050;14.084;2023-07-02T03:21:02;3.38;;;2.25;;
78783;SDS011;68127;51.050;14.084;2023-07-02T03:23:27;4.03;;;2.30;;
78783;SDS011;68127;51.050;14.084;2023-07-02T03:25:53;6.60;;;2.30;;
78783;SDS011;68127;51.050;14.084;2023-07-02T03:28:18;3.92;;;2.50;;
78783;SDS011;68127;51.050;14.084;2023-07-02T03:30:43;3.80;;;2.17;;
78783;SDS011;68127;51.050;14.084;2023-07-02T03:33:09;3.72;;;2.13;;
78783;SDS011;68127;51.050;14.084;2023-07-02T03:35:34;4.97;;;2.30;;
78783;SDS011;68127;51.050;14.084;2023-07-02T03:38:00;3.55;;;2.25;;
78783;SDS011;68127;51.050;14.084;2023-07-02T03:40:25;3.80;;;2.38;;
78783;SDS011;68127;51.050;14.084;2023-07-02T03:42:50;3.70;;;2.42;;
78783;SDS011;68127;51.050;14.084;2023-07-02T03:45:16;3.92;;;2.40;;
78783;SDS011;68127;51.050;14.084;2023-07-02T03:47:41;3.47;;;2.17;;
78783;SDS011;68127;51.050;14.084;2023-07-02T03:50:06;3.63;;;2.30;;
78783;SDS011;68127;51.050;14.084;2023-07-02T03:52:32;4.22;;;2.13;;
78783;SDS011;68127;51.050;14.084;2023-07-02T03:54:57;4.65;;;2.22;;
78783;SDS011;68127;51.050;14.084;2023-07-02T03:57:22;3.35;;;2.05;;
78783;SDS011;68127;51.050;14.084;2023-07-02T03:59:47;4.10;;;2.40;;
78783;SDS011;68127;51.050;14.084;2023-07-02T04:02:13;3.47;;;2.30;;
78783;SDS011;68127;51.050;14.084;2023-07-02T04:04:38;4.85;;;2.30;;
78783;SDS011;68127;51.050;14.084;2023-07-02T04:07:04;3.90;;;2.55;;
78783;SDS011;68127;51.050;14.084;2023-07-02T04:09:29;4.22;;;2.33;;
78783;SDS011;68127;51.050;14.084;2023-07-02T04:11:56;6.05;;;2.63;;
78783;SDS011;68127;51.050;14.084;2023-07-02T04:14:22;4.63;;;2.63;;
78783;SDS011;68127;51.050;14.084;2023-07-02T04:16:47;4.10;;;2.80;;
78783;SDS011;68127;51.050;14.084;2023-07-02T04:19:12;5.72;;;2.80;;
78783;SDS011;68127;51.050;14.084;2023-07-02T04:21:37;4.20;;;2.88;;
78783;SDS011;68127;51.050;14.084;2023-07-02T04:24:03;4.60;;;2.67;;
78783;SDS011;68127;51.050;14.084;2023-07-02T04:26:28;4.30;;;3.03;;
78783;SDS011;68127;51.050;14.084;2023-07-02T04:28:54;4.35;;;3.10;;
78783;SDS011;68127;51.050;14.084;2023-07-02T04:31:20;4.43;;;2.90;;
78783;SDS011;68127;51.050;14.084;2023-07-02T04:33:45;5.40;;;3.40;;
78783;SDS011;68127;51.050;14.084;2023-07-02T04:36:11;6.18;;;3.38;;
78783;SDS011;68127;51.050;14.084;2023-07-02T04:38:37;5.05;;;3.22;;
78783;SDS011;68127;51.050;14.084;2023-07-02T04:41:04;5.22;;;3.53;;
78783;SDS011;68127;51.050;14.084;2023-07-02T04:43:30;5.40;;;3.20;;
78783;SDS011;68127;51.050;14.084;2023-07-02T04:45:56;5.80;;;2.80;;
78783;SDS011;68127;51.050;14.084;2023-07-02T04:48:22;4.65;;;2.97;;
78783;SDS011;68127;51.050;14.084;2023-07-02T04:50:47;4.35;;;3.13;;
78783;SDS011;68127;51.050;14.084;2023-07-02T04:53:12;7.32;;;3.53;;
78783;SDS011;68127;51.050;14.084;2023-07-02T04:55:38;5.35;;;2.92;;
78783;SDS011;68127;51.050;14.084;2023-07-02T04:58:03;4.78;;;3.03;;
78783;SDS011;68127;51.050;14.084;2023-07-02T05:00:28;4.85;;;3.28;;
78783;SDS011;68127;51.050;14.084;2023-07-02T05:02:53;4.63;;;3.05;;
78783;SDS011;68127;51.050;14.084;2023-07-02T05:05:19;6.15;;;3.20;;
78783;SDS011;68127;51.050;14.084;2023-07-02T05:07:44;5.28;;;3.13;;
78783;SDS011;68127;51.050;14.084;2023-07-02T05:10:09;5.95;;;3.13;;
78783;SDS011;68127;51.050;14.084;2023-07-02T05:12:35;5.60;;;3.50;;
78783;SDS011;68127;51.050;14.084;2023-07-02T05:15:00;5.20;;;3.22;;
78783;SDS011;68127;51.050;14.084;2023-07-02T05:17:25;5.38;;;3.38;;
78783;SDS011;68127;51.050;14.084;2023-07-02T05:19:51;6.30;;;3.67;;
78783;SDS011;68127;51.050;14.084;2023-07-02T05:22:16;5.38;;;3.33;;
78783;SDS011;68127;51.050;14.084;2023-07-02T05:24:42;5.90;;;3.70;;
78783;SDS011;68127;51.050;14.084;2023-07-02T05:27:08;6.57;;;3.70;;
78783;SDS011;68127;51.050;14.084;2023-07-02T05:29:34;6.55;;;3.95;;
78783;SDS011;68127;51.050;14.084;2023-07-02T05:31:59;5.65;;;3.58;;
78783;SDS011;68127;51.050;14.084;2023-07-02T05:34:25;5.68;;;3.88;;
78783;SDS011;68127;51.050;14.084;2023-07-02T05:36:50;5.40;;;3.80;;
78783;SDS011;68127;51.050;14.084;2023-07-02T05:39:15;5.50;;;4.03;;
78783;SDS011;68127;51.050;14.084;2023-07-02T05:41:40;5.90;;;3.97;;
78783;SDS011;68127;51.050;14.084;2023-07-02T05:44:06;7.55;;;4.05;;
78783;SDS011;68127;51.050;14.084;2023-07-02T05:46:31;5.55;;;3.80;;
78783;SDS011;68127;51.050;14.084;2023-07-02T05:48:56;5.85;;;4.18;;
78783;SDS011;68127;51.050;14.084;2023-07-02T05:51:22;6.22;;;3.85;;
78783;SDS011;68127;51.050;14.084;2023-07-02T05:53:49;5.80;;;4.28;;
78783;SDS011;68127;51.050;14.084;2023-07-02T05:56:15;5.90;;;3.85;;
78783;SDS011;68127;51.050;14.084;2023-07-02T05:58:40;6.15;;;4.00;;
78783;SDS011;68127;51.050;14.084;2023-07-02T06:01:05;5.75;;;3.78;;
78783;SDS011;68127;51.050;14.084;2023-07-02T06:03:31;6.60;;;4.28;;
78783;SDS011;68127;51.050;14.084;2023-07-02T06:05:56;6.60;;;4.28;;
78783;SDS011;68127;51.050;14.084;2023-07-02T06:08:21;5.57;;;3.70;;
78783;SDS011;68127;51.050;14.084;2023-07-02T06:10:47;7.70;;;3.88;;
78783;SDS011;68127;51.050;14.084;2023-07-02T06:13:12;6.45;;;4.28;;
78783;SDS011;68127;51.050;14.084;2023-07-02T06:15:38;6.28;;;4.05;;
78783;SDS011;68127;51.050;14.084;2023-07-02T06:18:04;6.50;;;4.35;;
78783;SDS011;68127;51.050;14.084;2023-07-02T06:20:30;6.10;;;3.88;;
78783;SDS011;68127;51.050;14.084;2023-07-02T06:22:55;5.45;;;3.80;;
78783;SDS011;68127;51.050;14.084;2023-07-02T06:25:21;6.47;;;4.13;;
78783;SDS011;68127;51.050;14.084;2023-07-02T06:27:46;6.10;;;4.05;;
78783;SDS011;68127;51.050;14.084;2023-07-02T06:30:11;7.10;;;3.60;;
78783;SDS011;68127;51.050;14.084;2023-07-02T06:32:37;7.32;;;3.60;;
78783;SDS011;68127;51.050;14.084;2023-07-02T06:35:02;5.95;;;3.78;;
78783;SDS011;68127;51.050;14.084;2023-07-02T06:37:28;5.47;;;4.03;;
78783;SDS011;68127;51.050;14.084;2023-07-02T06:39:53;7.32;;;3.90;;
78783;SDS011;68127;51.050;14.084;2023-07-02T06:42:18;5.35;;;3.80;;
78783;SDS011;68127;51.050;14.084;2023-07-02T06:44:44;4.93;;;3.67;;
78783;SDS011;68127;51.050;14.084;2023-07-02T06:47:09;5.65;;;3.72;;
78783;SDS011;68127;51.050;14.084;2023-07-02T06:49:34;6.30;;;3.75;;
78783;SDS011;68127;51.050;14.084;2023-07-02T06:52:00;5.45;;;3.80;;
78783;SDS011;68127;51.050;14.084;2023-07-02T06:54:25;5.00;;;3.45;;
78783;SDS011;68127;51.050;14.084;2023-07-02T06:56:51;7.70;;;3.70;;
78783;SDS011;68127;51.050;14.084;2023-07-02T06:59:22;6.85;;;3.58;;
78783;SDS011;68127;51.050;14.084;2023-07-02T07:01:47;6.70;;;3.50;;
78783;SDS011;68127;51.050;14.084;2023-07-02T07:04:13;5.07;;;3.50;;
78783;SDS011;68127;51.050;14.084;2023-07-02T07:06:39;5.25;;;3.08;;
78783;SDS011;68127;51.050;14.084;2023-07-02T07:09:04;4.97;;;3.15;;
78783;SDS011;68127;51.050;14.084;2023-07-02T07:11:29;8.85;;;3.10;;
78783;SDS011;68127;51.050;14.084;2023-07-02T07:13:55;4.32;;;3.10;;
78783;SDS011;68127;51.050;14.084;2023-07-02T07:16:20;5.03;;;3.17;;
78783;SDS011;68127;51.050;14.084;2023-07-02T07:18:45;4.60;;;3.42;;
78783;SDS011;68127;51.050;14.084;2023-07-02T07:21:11;5.53;;;3.20;;
78783;SDS011;68127;51.050;14.084;2023-07-02T07:23:37;4.57;;;2.97;;
78783;SDS011;68127;51.050;14.084;2023-07-02T07:26:03;7.65;;;3.10;;
78783;SDS011;68127;51.050;14.084;2023-07-02T07:28:28;7.97;;;3.67;;
78783;SDS011;68127;51.050;14.084;2023-07-02T07:30:53;5.25;;;3.28;;
78783;SDS011;68127;51.050;14.084;2023-07-02T07:33:19;6.78;;;3.42;;
78783;SDS011;68127;51.050;14.084;2023-07-02T07:35:44;4.85;;;3.45;;
78783;SDS011;68127;51.050;14.084;2023-07-02T07:38:09;5.10;;;3.88;;
78783;SDS011;68127;51.050;14.084;2023-07-02T07:40:35;4.70;;;3.22;;
78783;SDS011;68127;51.050;14.084;2023-07-02T07:43:00;5.53;;;3.25;;
78783;SDS011;68127;51.050;14.084;2023-07-02T07:45:25;7.40;;;3.50;;
78783;SDS011;68127;51.050;14.084;2023-07-02T07:47:50;4.65;;;3.30;;
78783;SDS011;68127;51.050;14.084;2023-07-02T07:50:16;5.40;;;3.60;;
78783;SDS011;68127;51.050;14.084;2023-07-02T07:52:41;6.93;;;3.50;;
78783;SDS011;68127;51.050;14.084;2023-07-02T07:55:07;6.25;;;3.35;;
78783;SDS011;68127;51.050;14.084;2023-07-02T07:57:34;4.93;;;3.67;;
78783;SDS011;68127;51.050;14.084;2023-07-02T08:00:00;7.03;;;3.40;;
78783;SDS011;68127;51.050;14.084;2023-07-02T08:02:25;5.15;;;3.53;;
78783;SDS011;68127;51.050;14.084;2023-07-02T08:04:50;5.72;;;3.47;;
78783;SDS011;68127;51.050;14.084;2023-07-02T08:07:16;5.18;;;3.55;;
78783;SDS011;68127;51.050;14.084;2023-07-02T08:09:41;4.90;;;3.50;;
78783;SDS011;68127;51.050;14.084;2023-07-02T08:12:06;6.57;;;3.13;;
78783;SDS011;68127;51.050;14.084;2023-07-02T08:14:32;5.22;;;3.67;;
78783;SDS011;68127;51.050;14.084;2023-07-02T08:16:57;5.20;;;3.80;;
78783;SDS011;68127;51.050;14.084;2023-07-02T08:19:22;9.18;;;3.67;;
78783;SDS011;68127;51.050;14.084;2023-07-02T08:21:48;4.82;;;3.70;;
78783;SDS011;68127;51.050;14.084;2023-07-02T08:24:13;5.18;;;3.78;;
78783;SDS011;68127;51.050;14.084;2023-07-02T08:26:38;6.55;;;3.70;;
78783;SDS011;68127;51.050;14.084;2023-07-02T08:29:04;5.15;;;3.50;;
78783;SDS011;68127;51.050;14.084;2023-07-02T08:31:29;4.63;;;3.42;;
78783;SDS011;68127;51.050;14.084;2023-07-02T08:33:54;5.75;;;3.55;;
78783;SDS011;68127;51.050;14.084;2023-07-02T08:36:20;8.00;;;3.70;;
78783;SDS011;68127;51.050;14.084;2023-07-02T08:38:45;6.25;;;3.65;;
78783;SDS011;68127;51.050;14.084;2023-07-02T08:41:11;5.45;;;3.60;;
78783;SDS011;68127;51.050;14.084;2023-07-02T08:43:37;7.78;;;2.90;;
78783;SDS011;68127;51.050;14.084;2023-07-02T08:46:02;6.28;;;2.80;;
78783;SDS011;68127;51.050;14.084;2023-07-02T08:48:28;5.45;;;3.25;;
78783;SDS011;68127;51.050;14.084;2023-07-02T08:50:54;6.18;;;3.22;;
78783;SDS011;68127;51.050;14.084;2023-07-02T08:53:22;5.35;;;3.50;;
78783;SDS011;68127;51.050;14.084;2023-07-02T08:55:54;5.30;;;3.03;;
78783;SDS011;68127;51.050;14.084;2023-07-02T08:58:19;5.00;;;2.90;;
78783;SDS011;68127;51.050;14.084;2023-07-02T09:03:32;6.82;;;3.20;;
78783;SDS011;68127;51.050;14.084;2023-07-02T09:05:57;3.85;;;2.50;;
78783;SDS011;68127;51.050;14.084;2023-07-02T09:08:26;5.28;;;2.60;;
78783;SDS011;68127;51.050;14.084;2023-07-02T09:10:52;3.85;;;2.47;;
78783;SDS011;68127;51.050;14.084;2023-07-02T09:13:18;4.40;;;2.50;;
78783;SDS011;68127;51.050;14.084;2023-07-02T09:15:43;5.28;;;2.72;;
78783;SDS011;68127;51.050;14.084;2023-07-02T09:18:15;3.97;;;2.42;;
78783;SDS011;68127;51.050;14.084;2023-07-02T09:20:41;3.88;;;2.50;;
78783;SDS011;68127;51.050;14.084;2023-07-02T09:23:07;5.03;;;2.70;;
78783;SDS011;68127;51.050;14.084;2023-07-02T09:25:39;3.75;;;2.50;;
78783;SDS011;68127;51.050;14.084;2023-07-02T09:28:18;4.13;;;2.60;;
78783;SDS011;68127;51.050;14.084;2023-07-02T09:30:51;5.75;;;2.60;;
78783;SDS011;68127;51.050;14.084;2023-07-02T09:33:20;4.68;;;2.80;;
78783;SDS011;68127;51.050;14.084;2023-07-02T09:35:46;5.68;;;2.80;;
78783;SDS011;68127;51.050;14.084;2023-07-02T09:38:12;4.20;;;2.58;;
78783;SDS011;68127;51.050;14.084;2023-07-02T09:40:38;4.55;;;2.42;;
78783;SDS011;68127;51.050;14.084;2023-07-02T09:43:10;3.50;;;2.20;;
78783;SDS011;68127;51.050;14.084;2023-07-02T09:45:36;7.35;;;5.07;;
78783;SDS011;68127;51.050;14.084;2023-07-02T09:48:01;5.05;;;2.88;;
78783;SDS011;68127;51.050;14.084;2023-07-02T09:50:27;5.25;;;2.28;;
78783;SDS011;68127;51.050;14.084;2023-07-02T09:52:54;5.00;;;2.80;;
78783;SDS011;68127;51.050;14.084;2023-07-02T09:55:21;3.47;;;2.10;;
78783;SDS011;68127;51.050;14.084;2023-07-02T09:57:46;4.45;;;2.05;;
78783;SDS011;68127;51.050;14.084;2023-07-02T10:00:12;5.57;;;2.10;;
78783;SDS011;68127;51.050;14.084;2023-07-02T10:02:38;3.97;;;2.30;;
78783;SDS011;68127;51.050;14.084;2023-07-02T10:05:26;3.75;;;2.20;;
78783;SDS011;68127;51.050;14.084;2023-07-02T10:07:55;3.70;;;2.40;;
78783;SDS011;68127;51.050;14.084;2023-07-02T10:10:28;3.72;;;2.40;;
78783;SDS011;68127;51.050;14.084;2023-07-02T10:12:54;4.35;;;1.98;;
78783;SDS011;68127;51.050;14.084;2023-07-02T10:15:26;4.75;;;2.00;;
78783;SDS011;68127;51.050;14.084;2023-07-02T10:17:56;4.72;;;2.42;;
78783;SDS011;68127;51.050;14.084;2023-07-02T10:23:17;4.57;;;2.30;;
78783;SDS011;68127;51.050;14.084;2023-07-02T10:25:42;5.63;;;2.90;;
78783;SDS011;68127;51.050;14.084;2023-07-02T10:28:17;5.50;;;2.72;;
78783;SDS011;68127;51.050;14.084;2023-07-02T10:30:47;3.00;;;1.95;;
78783;SDS011;68127;51.050;14.084;2023-07-02T10:33:14;3.67;;;2.10;;
78783;SDS011;68127;51.050;14.084;2023-07-02T10:35:40;6.32;;;2.05;;
78783;SDS011;68127;51.050;14.084;2023-07-02T10:38:07;3.55;;;2.20;;
78783;SDS011;68127;51.050;14.084;2023-07-02T10:40:32;7.13;;;2.70;;
78783;SDS011;68127;51.050;14.084;2023-07-02T10:42:58;5.38;;;2.50;;
78783;SDS011;68127;51.050;14.084;2023-07-02T10:45:33;4.00;;;2.10;;
78783;SDS011;68127;51.050;14.084;2023-07-02T10:48:01;5.68;;;2.20;;
78783;SDS011;68127;51.050;14.084;2023-07-02T10:50:33;4.57;;;2.20;;
78783;SDS011;68127;51.050;14.084;2023-07-02T10:52:58;4.20;;;2.13;;
78783;SDS011;68127;51.050;14.084;2023-07-02T10:55:24;4.28;;;1.80;;
78783;SDS011;68127;51.050;14.084;2023-07-02T10:57:50;4.43;;;2.10;;
78783;SDS011;68127;51.050;14.084;2023-07-02T11:00:16;3.90;;;2.10;;
78783;SDS011;68127;51.050;14.084;2023-07-02T11:02:42;3.90;;;2.20;;
78783;SDS011;68127;51.050;14.084;2023-07-02T11:05:07;3.40;;;2.05;;
78783;SDS011;68127;51.050;14.084;2023-07-02T11:07:39;4.70;;;2.00;;
78783;SDS011;68127;51.050;14.084;2023-07-02T11:10:08;4.00;;;1.98;;
78783;SDS011;68127;51.050;14.084;2023-07-02T11:12:34;4.57;;;2.30;;
78783;SDS011;68127;51.050;14.084;2023-07-02T11:17:40;3.80;;;2.10;;
78783;SDS011;68127;51.050;14.084;2023-07-02T11:20:10;4.85;;;2.10;;
78783;SDS011;68127;51.050;14.084;2023-07-02T11:22:37;3.78;;;2.10;;
78783;SDS011;68127;51.050;14.084;2023-07-02T11:25:09;3.38;;;2.20;;
78783;SDS011;68127;51.050;14.084;2023-07-02T11:30:01;4.03;;;2.13;;
78783;SDS011;68127;51.050;14.084;2023-07-02T11:32:26;4.38;;;1.98;;
78783;SDS011;68127;51.050;14.084;2023-07-02T11:34:55;4.80;;;1.95;;
78783;SDS011;68127;51.050;14.084;2023-07-02T11:37:21;3.90;;;2.40;;
78783;SDS011;68127;51.050;14.084;2023-07-02T11:39:46;4.57;;;1.90;;
78783;SDS011;68127;51.050;14.084;2023-07-02T11:42:12;4.63;;;2.10;;
78783;SDS011;68127;51.050;14.084;2023-07-02T11:44:37;4.95;;;2.03;;
78783;SDS011;68127;51.050;14.084;2023-07-02T11:47:03;4.68;;;2.28;;
78783;SDS011;68127;51.050;14.084;2023-07-02T11:49:28;4.00;;;2.20;;
78783;SDS011;68127;51.050;14.084;2023-07-02T11:51:54;4.75;;;1.95;;
78783;SDS011;68127;51.050;14.084;2023-07-02T11:54:19;4.07;;;2.10;;
78783;SDS011;68127;51.050;14.084;2023-07-02T11:56:44;4.18;;;2.03;;
78783;SDS011;68127;51.050;14.084;2023-07-02T11:59:10;3.70;;;2.10;;
78783;SDS011;68127;51.050;14.084;2023-07-02T12:01:35;4.60;;;2.00;;
78783;SDS011;68127;51.050;14.084;2023-07-02T12:04:00;3.33;;;2.08;;
78783;SDS011;68127;51.050;14.084;2023-07-02T12:06:26;6.60;;;2.22;;
78783;SDS011;68127;51.050;14.084;2023-07-02T12:08:51;7.55;;;2.20;;
78783;SDS011;68127;51.050;14.084;2023-07-02T12:11:16;5.43;;;2.00;;
78783;SDS011;68127;51.050;14.084;2023-07-02T12:13:42;3.65;;;2.03;;
78783;SDS011;68127;51.050;14.084;2023-07-02T12:16:07;3.63;;;2.22;;
78783;SDS011;68127;51.050;14.084;2023-07-02T12:18:32;2.95;;;1.90;;
78783;SDS011;68127;51.050;14.084;2023-07-02T12:20:58;6.80;;;2.13;;
78783;SDS011;68127;51.050;14.084;2023-07-02T12:23:23;4.63;;;2.10;;
78783;SDS011;68127;51.050;14.084;2023-07-02T12:25:48;3.58;;;2.00;;
78783;SDS011;68127;51.050;14.084;2023-07-02T12:28:14;4.28;;;2.00;;
78783;SDS011;68127;51.050;14.084;2023-07-02T12:30:39;5.00;;;2.00;;
78783;SDS011;68127;51.050;14.084;2023-07-02T12:33:05;5.47;;;2.00;;
78783;SDS011;68127;51.050;14.084;2023-07-02T12:35:30;5.63;;;2.00;;
78783;SDS011;68127;51.050;14.084;2023-07-02T12:37:55;4.43;;;2.05;;
78783;SDS011;68127;51.050;14.084;2023-07-02T12:40:20;3.92;;;2.15;;
78783;SDS011;68127;51.050;14.084;2023-07-02T12:42:46;4.63;;;2.00;;
78783;SDS011;68127;51.050;14.084;2023-07-02T12:45:12;6.22;;;2.20;;
78783;SDS011;68127;51.050;14.084;2023-07-02T12:47:38;5.05;;;2.10;;
78783;SDS011;68127;51.050;14.084;2023-07-02T12:50:04;4.15;;;1.92;;
78783;SDS011;68127;51.050;14.084;2023-07-02T12:52:30;3.35;;;2.05;;
78783;SDS011;68127;51.050;14.084;2023-07-02T12:54:55;4.95;;;2.30;;
78783;SDS011;68127;51.050;14.084;2023-07-02T12:57:21;4.00;;;1.92;;
78783;SDS011;68127;51.050;14.084;2023-07-02T12:59:46;5.07;;;1.90;;
78783;SDS011;68127;51.050;14.084;2023-07-02T13:02:11;5.13;;;2.22;;
78783;SDS011;68127;51.050;14.084;2023-07-02T13:04:36;4.07;;;1.98;;
78783;SDS011;68127;51.050;14.084;2023-07-02T13:07:03;4.68;;;2.40;;
78783;SDS011;68127;51.050;14.084;2023-07-02T13:09:28;5.18;;;2.58;;
78783;SDS011;68127;51.050;14.084;2023-07-02T13:11:53;4.85;;;2.55;;
78783;SDS011;68127;51.050;14.084;2023-07-02T13:14:19;6.47;;;2.47;;
78783;SDS011;68127;51.050;14.084;2023-07-02T13:16:44;5.38;;;2.30;;
78783;SDS011;68127;51.050;14.084;2023-07-02T13:19:09;5.00;;;2.58;;
78783;SDS011;68127;51.050;14.084;2023-07-02T13:21:35;3.70;;;2.15;;
78783;SDS011;68127;51.050;14.084;2023-07-02T13:24:01;3.88;;;2.30;;
78783;SDS011;68127;51.050;14.084;2023-07-02T13:26:26;4.05;;;2.50;;
78783;SDS011;68127;51.050;14.084;2023-07-02T13:28:51;4.57;;;2.33;;
78783;SDS011;68127;51.050;14.084;2023-07-02T13:31:16;7.28;;;2.40;;
78783;SDS011;68127;51.050;14.084;2023-07-02T13:33:42;7.70;;;2.20;;
78783;SDS011;68127;51.050;14.084;2023-07-02T13:36:08;7.28;;;2.38;;
78783;SDS011;68127;51.050;14.084;2023-07-02T13:38:33;4.80;;;2.42;;
78783;SDS011;68127;51.050;14.084;2023-07-02T13:40:58;4.93;;;2.30;;
78783;SDS011;68127;51.050;14.084;2023-07-02T13:43:24;5.38;;;2.80;;
78783;SDS011;68127;51.050;14.084;2023-07-02T13:45:49;5.72;;;2.83;;
78783;SDS011;68127;51.050;14.084;2023-07-02T13:48:14;7.80;;;2.85;;
78783;SDS011;68127;51.050;14.084;2023-07-02T13:50:39;6.00;;;2.80;;
78783;SDS011;68127;51.050;14.084;2023-07-02T13:53:05;6.85;;;2.92;;
78783;SDS011;68127;51.050;14.084;2023-07-02T13:55:30;8.07;;;3.15;;
78783;SDS011;68127;51.050;14.084;2023-07-02T13:57:56;6.07;;;2.63;;
78783;SDS011;68127;51.050;14.084;2023-07-02T14:00:25;7.07;;;2.80;;
78783;SDS011;68127;51.050;14.084;2023-07-02T14:02:50;6.82;;;2.75;;
78783;SDS011;68127;51.050;14.084;2023-07-02T14:05:16;8.18;;;2.83;;
78783;SDS011;68127;51.050;14.084;2023-07-02T14:07:41;8.38;;;2.90;;
78783;SDS011;68127;51.050;14.084;2023-07-02T14:10:06;7.50;;;3.17;;
78783;SDS011;68127;51.050;14.084;2023-07-02T14:12:32;9.00;;;3.15;;
78783;SDS011;68127;51.050;14.084;2023-07-02T14:14:57;7.75;;;2.75;;
78783;SDS011;68127;51.050;14.084;2023-07-02T14:17:23;7.03;;;2.85;;
78783;SDS011;68127;51.050;14.084;2023-07-02T14:19:48;6.20;;;3.17;;
78783;SDS011;68127;51.050;14.084;2023-07-02T14:22:13;6.00;;;2.67;;
78783;SDS011;68127;51.050;14.084;2023-07-02T14:24:39;11.38;;;3.20;;
78783;SDS011;68127;51.050;14.084;2023-07-02T14:27:04;6.05;;;2.90;;
78783;SDS011;68127;51.050;14.084;2023-07-02T14:29:29;7.65;;;3.03;;
78783;SDS011;68127;51.050;14.084;2023-07-02T14:31:55;7.78;;;3.05;;
78783;SDS011;68127;51.050;14.084;2023-07-02T14:34:20;7.55;;;2.90;;
78783;SDS011;68127;51.050;14.084;2023-07-02T14:36:46;5.75;;;2.80;;
78783;SDS011;68127;51.050;14.084;2023-07-02T14:39:11;6.78;;;2.55;;
78783;SDS011;68127;51.050;14.084;2023-07-02T14:41:36;5.97;;;2.67;;
78783;SDS011;68127;51.050;14.084;2023-07-02T14:44:02;8.65;;;2.90;;